Time;durP1;ratioP1;P1;durP2;ratioP2;P2;SDS_P1;SDS_P2;PMS_P1;PMS_P2;Temp;Humidity;BMP_temperature;BMP_pressure;BME280_temperature;BME280_humidity;BME280_pressure;Samples;Min_cycle;Max_cycle;Signal;HPM_P1;HPM_P2
2022/12/03 00:02:00;;;;;;;231.32;12.43;;;;;;;5.80;92.32;97267.63;5115342;28;20078;-62
2022/12/03 00:04:27;;;;;;;197.63;11.60;;;;;;;5.82;92.44;97264.16;5115335;28;20046;-62
2022/12/03 00:06:54;;;;;;;332.38;12.02;;;;;;;5.88;91.89;97270.19;5115301;28;20039;-62
2022/12/03 00:09:23;;;;;;;243.93;12.77;;;;;;;5.88;91.89;97271.06;5115200;28;20093;-62
2022/12/03 00:11:50;;;;;;;241.57;9.38;;;;;;;5.91;91.78;97267.56;5115272;28;20039;-62
2022/12/03 00:14:17;;;;;;;171.18;7.85;;;;;;;5.93;91.50;97273.63;5115132;28;20476;-62
2022/12/03 00:16:45;;;;;;;163.70;7.28;;;;;;;5.95;91.37;97269.25;5115086;28;20051;-62
2022/12/03 00:19:12;;;;;;;131.40;6.78;;;;;;;5.98;91.02;97266.63;5115222;28;20039;-62
2022/12/03 00:21:39;;;;;;;150.25;7.72;;;;;;;5.99;90.93;97267.50;5115164;28;20048;-62
2022/12/03 00:24:08;;;;;;;89.13;8.23;;;;;;;5.99;91.07;97270.94;5115025;28;20044;-62
2022/12/03 00:26:36;;;;;;;136.70;8.80;;;;;;;6.00;90.95;97275.28;5115020;28;20051;-62
2022/12/03 00:29:04;;;;;;;188.73;9.45;;;;;;;6.01;90.70;97278.72;5114817;28;20043;-62
2022/12/03 00:31:31;;;;;;;242.05;13.23;;;;;;;6.00;90.70;97274.41;5114926;28;20094;-62
2022/12/03 00:33:58;;;;;;;498.95;24.63;;;;;;;5.99;90.66;97273.53;5114821;28;20472;-62
2022/12/03 00:36:25;;;;;;;320.33;14.35;;;;;;;6.01;90.40;97273.53;5114660;28;20047;-62
2022/12/03 00:38:52;;;;;;;209.45;11.65;;;;;;;5.91;90.66;97280.56;5114400;28;20043;-62
2022/12/03 00:41:19;;;;;;;252.00;11.05;;;;;;;5.89;90.92;97285.75;5114794;28;20055;-62
2022/12/03 00:43:48;;;;;;;474.45;13.45;;;;;;;5.87;90.80;97284.91;5114514;28;20043;-61
2022/12/03 00:46:15;;;;;;;407.88;13.98;;;;;;;5.88;90.61;97290.97;5114572;28;20097;-62
2022/12/03 00:48:42;;;;;;;343.42;11.63;;;;;;;5.84;90.78;97289.25;5114519;28;20123;-62
2022/12/03 00:51:09;;;;;;;515.97;18.80;;;;;;;5.81;90.83;97296.19;5114386;28;20052;-62
2022/12/03 00:53:36;;;;;;;406.25;14.65;;;;;;;5.72;91.37;97301.44;5114435;28;20055;-61
2022/12/03 00:56:03;;;;;;;228.93;12.02;;;;;;;5.71;91.56;97299.72;5114707;28;20088;-62
2022/12/03 00:58:30;;;;;;;429.73;15.57;;;;;;;5.68;91.60;97299.75;5114311;28;20134;-62
2022/12/03 01:00:59;;;;;;;589.10;21.27;;;;;;;5.68;91.67;97300.63;5114334;28;20130;-61
2022/12/03 01:03:26;;;;;;;309.88;12.60;;;;;;;5.71;91.69;97294.53;5114133;28;20070;-62
2022/12/03 01:05:53;;;;;;;332.80;14.02;;;;;;;5.69;91.43;97302.31;5114285;28;20459;-62
2022/12/03 01:08:20;;;;;;;295.58;12.93;;;;;;;5.74;91.74;97309.22;5114121;28;20048;-62
2022/12/03 01:10:47;;;;;;;153.98;8.98;;;;;;;5.76;91.50;97303.16;5113984;28;20481;-62
2022/12/03 01:13:14;;;;;;;134.48;7.55;;;;;;;5.77;91.29;97304.88;5114079;28;20447;-62
2022/12/03 01:15:41;;;;;;;310.98;12.85;;;;;;;5.81;90.85;97311.78;5114018;28;20558;-62
2022/12/03 01:18:10;;;;;;;188.70;9.55;;;;;;;5.84;90.71;97308.28;5113926;28;20559;-62
2022/12/03 01:20:37;;;;;;;80.47;8.63;;;;;;;5.87;90.66;97317.81;5113878;28;20128;-62
2022/12/03 01:23:05;;;;;;;208.52;15.20;;;;;;;5.89;90.50;97313.44;5113774;28;20087;-62
2022/12/03 01:25:32;;;;;;;125.30;9.98;;;;;;;5.92;90.62;97314.31;5113842;28;20046;-62
2022/12/03 01:27:59;;;;;;;230.82;11.25;;;;;;;5.91;90.67;97314.31;5113360;28;20134;-62
2022/12/03 01:30:27;;;;;;;317.02;14.63;;;;;;;5.87;90.29;97320.41;5113801;28;20130;-62
2022/12/03 01:32:53;;;;;;;313.15;13.63;;;;;;;5.82;90.57;97315.25;5113728;28;20120;-62
2022/12/03 01:35:21;;;;;;;325.15;12.20;;;;;;;5.84;90.72;97318.66;5113535;28;20135;-62
2022/12/03 01:37:49;;;;;;;247.90;12.25;;;;;;;5.84;90.69;97318.66;5113576;28;20055;-62
2022/12/03 01:40:19;;;;;;;324.23;12.48;;;;;;;5.80;90.67;97315.25;5113450;28;20048;-61
2022/12/03 01:42:46;;;;;;;484.27;17.35;;;;;;;5.80;90.80;97316.97;5113656;28;20486;-62
2022/12/03 01:45:21;;;;;;;224.32;13.48;;;;;;;5.79;90.95;97323.03;5113831;28;20073;-62
2022/12/03 01:47:48;;;;;;;173.02;11.93;;;;;;;5.80;91.16;97320.44;5113657;28;20460;-61
2022/12/03 01:50:20;;;;;;;289.48;13.15;;;;;;;5.80;91.05;97315.25;5113659;28;20079;-61
2022/12/03 01:52:49;;;;;;;437.58;17.55;;;;;;;5.80;90.84;97316.97;5113569;28;20105;-62
2022/12/03 01:55:19;;;;;;;219.02;13.15;;;;;;;5.80;90.65;97324.75;5113624;28;20101;-61
2022/12/03 01:57:50;;;;;;;313.40;13.90;;;;;;;5.79;90.67;97326.53;5113618;28;20047;-62
2022/12/03 02:00:19;;;;;;;229.10;11.45;;;;;;;5.80;90.44;97328.22;5113638;28;20498;-61
2022/12/03 02:02:49;;;;;;;151.30;11.95;;;;;;;5.78;90.59;97321.34;5113570;28;20075;-62
2022/12/03 02:05:19;;;;;;;368.33;17.75;;;;;;;5.79;90.57;97318.72;5113497;28;20122;-62
2022/12/03 02:07:48;;;;;;;403.30;19.42;;;;;;;5.78;90.65;97316.97;5113521;28;20127;-62
2022/12/03 02:10:18;;;;;;;239.73;11.27;;;;;;;5.78;90.25;97314.38;5113255;28;20048;-62
2022/12/03 02:12:52;;;;;;;144.18;9.48;;;;;;;5.78;89.97;97316.13;5113481;28;20055;-62
2022/12/03 02:15:19;;;;;;;234.75;12.80;;;;;;;5.78;90.13;97319.56;5113295;28;20090;-62
2022/12/03 02:17:46;;;;;;;189.07;12.23;;;;;;;5.78;90.10;97329.13;5113355;28;20138;-62
2022/12/03 02:20:14;;;;;;;200.35;11.20;;;;;;;5.75;90.13;97322.19;5113270;28;20139;-61
2022/12/03 02:22:51;;;;;;;296.83;14.93;;;;;;;5.74;90.43;97333.47;5113290;28;20536;-61
2022/12/03 02:25:23;;;;;;;148.30;11.88;;;;;;;5.71;90.65;97336.06;5113253;28;20109;-62
2022/12/03 02:27:51;;;;;;;356.77;18.77;;;;;;;5.69;90.95;97333.47;5113454;28;20570;-61
2022/12/03 02:30:20;;;;;;;463.38;23.10;;;;;;;5.66;91.00;97333.50;5113075;28;20083;-62
2022/12/03 02:32:48;;;;;;;314.25;15.77;;;;;;;5.61;91.21;97330.06;5113076;28;20489;-61
2022/12/03 02:35:17;;;;;;;297.23;12.70;;;;;;;5.64;91.41;97330.06;5113029;28;20039;-61
2022/12/03 02:37:46;;;;;;;434.05;18.92;;;;;;;5.66;91.10;97333.50;5113224;28;20059;-62
2022/12/03 02:40:18;;;;;;;338.85;17.38;;;;;;;5.65;91.01;97334.38;5115941;28;20044;-61
2022/12/03 02:42:48;;;;;;;388.40;19.35;;;;;;;5.62;91.17;97342.19;5117002;28;20065;-62
2022/12/03 02:45:18;;;;;;;242.32;16.10;;;;;;;5.64;91.23;97343.03;5116843;28;20729;-61
2022/12/03 02:47:47;;;;;;;260.52;15.50;;;;;;;5.65;91.28;97338.69;5116893;28;20631;-62
2022/12/03 02:50:19;;;;;;;392.67;16.83;;;;;;;5.64;91.31;97332.66;5116768;28;20130;-62
2022/12/03 02:52:48;;;;;;;294.38;15.57;;;;;;;5.68;91.27;97333.50;5116751;28;20051;-62
2022/12/03 02:55:17;;;;;;;323.50;15.07;;;;;;;5.73;90.89;97334.34;5116642;28;20079;-62
2022/12/03 02:57:49;;;;;;;249.32;13.68;;;;;;;5.71;91.16;97336.06;5116612;28;20079;-62
2022/12/03 03:00:18;;;;;;;238.00;14.32;;;;;;;5.72;90.90;97335.19;5116895;28;20056;-61
2022/12/03 03:02:46;;;;;;;213.35;13.60;;;;;;;5.74;90.79;97338.66;5116581;28;20048;-61
2022/12/03 03:05:15;;;;;;;176.73;13.10;;;;;;;5.76;90.60;97338.66;5116566;28;20052;-62
2022/12/03 03:07:43;;;;;;;262.92;12.18;;;;;;;5.75;90.33;97332.56;5116408;28;20047;-61
2022/12/03 03:10:14;;;;;;;95.00;9.98;;;;;;;5.78;90.29;97332.56;5116529;28;20054;-61
2022/12/03 03:12:41;;;;;;;244.05;13.32;;;;;;;5.77;90.39;97328.25;5116454;28;20051;-62
2022/12/03 03:15:12;;;;;;;183.95;11.57;;;;;;;5.79;90.37;97339.50;5116361;28;20044;-62
2022/12/03 03:17:39;;;;;;;190.63;9.85;;;;;;;5.81;90.13;97326.50;5116256;28;20493;-62
2022/12/03 03:20:09;;;;;;;98.13;9.63;;;;;;;5.79;89.97;97330.84;5116219;28;20051;-62
2022/12/03 03:22:38;;;;;;;124.57;10.87;;;;;;;5.74;90.56;97337.78;5116338;28;20043;-61
2022/12/03 03:25:07;;;;;;;154.90;12.02;;;;;;;5.77;90.39;97332.56;5116236;28;20130;-62
2022/12/03 03:27:35;;;;;;;406.88;22.23;;;;;;;5.70;90.42;97344.75;5116080;28;20047;-61
2022/12/03 03:30:02;;;;;;;138.65;12.50;;;;;;;5.72;90.44;97348.16;5116166;28;20485;-61
2022/12/03 03:32:31;;;;;;;58.85;13.38;;;;;;;5.73;90.58;97338.66;5116380;28;20052;-62
2022/12/03 03:34:58;;;;;;;145.75;13.68;;;;;;;5.76;90.64;97339.50;5116039;28;20051;-62
2022/12/03 03:37:25;;;;;;;357.13;24.17;;;;;;;5.75;90.34;97352.50;5116026;28;20459;-62
2022/12/03 03:39:52;;;;;;;189.60;14.15;;;;;;;5.74;90.51;97353.34;5115588;28;20104;-61
2022/12/03 03:42:20;;;;;;;265.10;17.08;;;;;;;5.75;90.71;97352.50;5115981;28;20054;-62
2022/12/03 03:44:48;;;;;;;113.00;11.25;;;;;;;5.77;90.70;97358.53;5115827;28;20044;-61
2022/12/03 03:47:17;;;;;;;208.73;12.80;;;;;;;5.78;90.45;97349.91;5115817;28;20067;-61
2022/12/03 03:49:46;;;;;;;417.13;22.95;;;;;;;5.71;90.70;97358.56;5115184;28;20051;-62
2022/12/03 03:52:14;;;;;;;155.27;12.02;;;;;;;5.74;90.95;97359.44;5115583;28;20048;-61
2022/12/03 03:54:41;;;;;;;269.83;15.07;;;;;;;5.74;90.72;97359.44;5115562;28;20047;-62
2022/12/03 03:57:08;;;;;;;173.95;10.20;;;;;;;5.75;90.69;97361.13;5115476;28;20134;-62
2022/12/03 03:59:35;;;;;;;152.30;9.57;;;;;;;5.77;90.42;97359.41;5115491;28;20554;-62
2022/12/03 04:02:02;;;;;;;123.30;10.50;;;;;;;5.80;90.18;97372.38;5115422;28;20078;-62
2022/12/03 04:04:34;;;;;;;205.13;12.32;;;;;;;5.78;90.41;97371.50;5115455;28;20054;-62
2022/12/03 04:07:03;;;;;;;213.85;13.32;;;;;;;5.79;90.31;97368.06;5115298;28;20079;-62
2022/12/03 04:09:30;;;;;;;217.82;12.55;;;;;;;5.80;90.32;97363.72;5115589;28;20497;-62
2022/12/03 04:14:42;;;;;;;163.20;12.18;;;;;;;5.79;90.14;97368.06;5115219;28;20051;-62
2022/12/03 04:17:09;;;;;;;183.82;13.90;;;;;;;5.77;90.08;97374.13;5115145;28;20047;-62
2022/12/03 04:19:36;;;;;;;95.70;8.80;;;;;;;5.77;90.01;97369.78;5115220;28;20097;-62
2022/12/03 04:24:49;;;;;;;55.80;8.15;;;;;;;5.81;89.78;97365.47;5115396;28;20065;-61
2022/12/03 04:30:00;;;;;;;15.98;7.72;;;;;;;5.81;90.21;97375.84;5115192;28;20051;-62
2022/12/03 04:37:57;;;;;;;10.70;7.40;;;;;;;5.80;90.29;97379.28;5114876;28;20054;-62
2022/12/03 04:43:09;;;;;;;14.00;6.75;;;;;;;5.82;90.27;97372.38;5114696;28;20050;-62
2022/12/03 04:45:36;;;;;;;6.18;5.30;;;;;;;5.84;90.06;97380.16;5114567;28;20094;-62
2022/12/03 04:48:03;;;;;;;7.20;5.85;;;;;;;5.84;89.76;97375.81;5114446;28;20134;-61
2022/12/03 04:50:30;;;;;;;52.30;8.18;;;;;;;5.84;90.08;97370.59;5114370;28;20130;-62
2022/12/03 04:52:58;;;;;;;13.82;7.18;;;;;;;5.85;90.03;97374.94;5114495;28;21202;-62
2022/12/03 04:55:25;;;;;;;37.55;8.02;;;;;;;5.87;89.96;97373.19;5114382;28;20551;-61
2022/12/03 04:57:53;;;;;;;8.63;7.13;;;;;;;5.85;90.16;97377.56;5114278;28;20044;-62
2022/12/03 05:00:20;;;;;;;12.68;6.72;;;;;;;5.83;90.29;97381.88;5114251;28;20053;-62
2022/12/03 05:02:47;;;;;;;11.32;7.63;;;;;;;5.86;90.29;97381.00;5113499;28;20439;-62
2022/12/03 05:05:14;;;;;;;11.32;8.27;;;;;;;5.88;89.98;97382.72;5114179;28;20048;-61
2022/12/03 05:07:41;;;;;;;9.23;7.35;;;;;;;5.90;89.80;97380.97;5114086;28;20131;-62
2022/12/03 05:10:10;;;;;;;18.30;8.25;;;;;;;5.87;90.06;97387.94;5114112;28;20499;-62
2022/12/03 05:12:37;;;;;;;61.28;10.00;;;;;;;5.87;90.26;97387.94;5114067;28;20402;-62
2022/12/03 05:15:06;;;;;;;273.08;15.73;;;;;;;5.85;90.18;97395.72;5114110;28;20078;-62
2022/12/03 05:17:33;;;;;;;443.80;24.25;;;;;;;5.83;90.36;97389.66;5114047;28;20139;-62
2022/12/03 05:22:45;;;;;;;15.85;8.05;;;;;;;5.86;90.07;97392.25;5113993;28;20507;-62
2022/12/03 05:25:13;;;;;;;18.58;8.48;;;;;;;5.88;90.03;97394.84;5113885;28;20055;-62
2022/12/03 05:27:40;;;;;;;28.85;9.10;;;;;;;5.88;90.13;97395.72;5113801;28;20086;-62
2022/12/03 05:30:09;;;;;;;27.80;8.50;;;;;;;5.90;89.99;97401.75;5113958;28;20043;-61
2022/12/03 05:32:37;;;;;;;14.45;8.48;;;;;;;5.86;89.70;97393.97;5114024;28;20501;-62
2022/12/03 05:35:04;;;;;;;28.05;8.77;;;;;;;5.85;89.90;97400.03;5113709;28;20039;-62
2022/12/03 05:37:32;;;;;;;15.55;7.72;;;;;;;5.85;90.06;97406.13;5113762;28;20081;-62
2022/12/03 05:39:59;;;;;;;11.60;7.78;;;;;;;5.86;89.96;97391.38;5113518;28;20497;-62
2022/12/03 05:45:12;;;;;;;7.20;5.07;;;;;;;5.75;90.19;97394.91;5113816;28;20108;-61
2022/12/03 05:47:39;;;;;;;3.95;3.35;;;;;;;5.70;89.94;97391.47;5113801;28;20048;-62
2022/12/03 05:50:07;;;;;;;4.40;3.53;;;;;;;5.71;89.72;97395.78;5113611;28;20509;-62
2022/12/03 05:52:34;;;;;;;6.50;4.68;;;;;;;5.74;90.01;97400.97;5113419;28;20056;-62
2022/12/03 05:55:02;;;;;;;10.18;7.70;;;;;;;5.73;89.63;97404.44;5113434;28;20047;-62
2022/12/03 05:57:30;;;;;;;2.40;2.20;;;;;;;5.68;88.83;97407.06;5113621;28;20043;-62
2022/12/03 05:59:58;;;;;;;10.00;4.60;;;;;;;5.69;89.25;97400.16;5113532;28;20102;-62
2022/12/03 06:02:25;;;;;;;12.30;5.00;;;;;;;5.76;89.50;97409.63;5113437;28;20047;-61
2022/12/03 06:04:52;;;;;;;11.75;5.78;;;;;;;5.85;89.66;97420.81;5113362;28;20044;-62
2022/12/03 06:07:20;;;;;;;15.93;8.75;;;;;;;5.93;89.96;97421.66;5113453;28;20046;-62
2022/12/03 06:09:47;;;;;;;12.50;7.63;;;;;;;5.96;90.21;97424.22;5113388;28;20130;-62
2022/12/03 06:12:14;;;;;;;10.90;8.07;;;;;;;5.98;90.40;97419.88;5113251;28;20050;-62
2022/12/03 06:14:43;;;;;;;12.48;8.00;;;;;;;6.01;90.04;97421.59;5117643;28;20079;-61
2022/12/03 06:17:10;;;;;;;10.23;7.05;;;;;;;6.02;89.92;97426.78;5117613;28;20044;-62
2022/12/03 06:19:37;;;;;;;6.88;5.90;;;;;;;6.05;89.97;97434.59;5117488;28;20052;-61
2022/12/03 06:22:05;;;;;;;9.02;6.85;;;;;;;6.05;90.43;97444.16;5117360;28;20050;-62
2022/12/03 06:24:33;;;;;;;8.50;6.72;;;;;;;6.04;90.58;97439.81;5117420;28;20051;-61
2022/12/03 06:27:00;;;;;;;8.00;5.97;;;;;;;6.02;90.43;97438.94;5117478;28;20039;-62
2022/12/03 06:29:27;;;;;;;7.80;5.68;;;;;;;6.05;90.36;97436.34;5117220;28;20118;-61
2022/12/03 06:31:56;;;;;;;8.00;5.95;;;;;;;6.07;90.29;97432.00;5117021;28;20413;-61
2022/12/03 06:34:23;;;;;;;6.65;5.95;;;;;;;6.09;89.95;97438.06;5117183;28;20079;-62
2022/12/03 06:36:50;;;;;;;6.82;5.40;;;;;;;6.12;89.82;97439.75;5117040;28;20127;-61
2022/12/03 06:39:18;;;;;;;6.80;5.13;;;;;;;6.15;89.77;97434.56;5116895;28;20047;-62
2022/12/03 06:41:46;;;;;;;6.78;4.88;;;;;;;6.16;89.91;97444.06;5116966;28;20123;-61
2022/12/03 06:44:13;;;;;;;6.20;5.13;;;;;;;6.15;89.77;97443.22;5117237;28;20047;-62
2022/12/03 06:46:41;;;;;;;5.97;4.95;;;;;;;6.17;89.93;97444.06;5116839;28;20134;-61
2022/12/03 06:49:10;;;;;;;7.28;6.10;;;;;;;6.18;89.97;97448.38;5117152;28;20764;-61
2022/12/03 06:51:37;;;;;;;7.15;4.90;;;;;;;6.18;89.95;97445.78;5116770;28;20477;-62
2022/12/03 06:54:07;;;;;;;4.78;4.28;;;;;;;6.25;89.89;97450.94;5116787;28;20050;-61
2022/12/03 06:56:35;;;;;;;6.03;5.28;;;;;;;6.27;89.61;97450.09;5116570;28;20094;-61
2022/12/03 06:59:03;;;;;;;5.63;5.03;;;;;;;6.23;89.62;97450.09;5116666;28;20555;-61
2022/12/03 07:01:33;;;;;;;6.72;5.07;;;;;;;6.20;90.04;97445.75;5116513;28;20059;-62
2022/12/03 07:04:01;;;;;;;7.32;5.85;;;;;;;6.09;90.61;97443.25;5116523;28;20048;-62
2022/12/03 07:06:32;;;;;;;8.85;5.75;;;;;;;6.15;90.50;97451.00;5116520;28;20048;-62
2022/12/03 07:09:01;;;;;;;6.65;5.32;;;;;;;6.12;90.34;97453.63;5116502;28;20047;-61
2022/12/03 07:11:38;;;;;;;5.70;5.10;;;;;;;6.21;90.29;97459.63;5116280;28;20138;-62
2022/12/03 07:14:08;;;;;;;6.45;5.78;;;;;;;6.27;89.94;97462.19;5116363;28;20404;-61
2022/12/03 07:16:36;;;;;;;8.52;5.63;;;;;;;6.34;89.76;97466.47;5116410;28;20070;-61
2022/12/03 07:19:03;;;;;;;6.72;5.20;;;;;;;6.40;90.01;97473.38;5116338;28;20077;-62
2022/12/03 07:21:32;;;;;;;7.68;6.68;;;;;;;6.46;89.84;97468.13;5116157;28;20090;-61
2022/12/03 07:23:59;;;;;;;8.90;7.05;;;;;;;6.53;89.83;97463.78;5115751;28;20048;-61
2022/12/03 07:26:27;;;;;;;17.77;12.77;;;;;;;6.57;89.57;97465.47;5115685;28;20537;-61
2022/12/03 07:28:55;;;;;;;37.13;25.75;;;;;;;6.59;89.26;97471.50;5116157;28;20044;-62
2022/12/03 07:31:23;;;;;;;44.83;27.55;;;;;;;6.61;89.21;97476.69;5116025;28;20055;-62
2022/12/03 07:33:51;;;;;;;34.58;23.08;;;;;;;6.62;89.45;97471.50;5115978;28;20447;-62
2022/12/03 07:36:18;;;;;;;11.65;9.73;;;;;;;6.63;88.72;97472.38;5116018;28;20040;-62
2022/12/03 07:38:47;;;;;;;9.60;7.13;;;;;;;6.64;87.92;97467.16;5115868;28;20043;-61
2022/12/03 07:41:14;;;;;;;5.35;4.50;;;;;;;6.59;87.42;97476.72;5075260;28;20478;-61
2022/12/03 07:43:43;;;;;;;5.55;4.20;;;;;;;6.53;87.34;97472.41;5075600;28;20052;-62
2022/12/03 07:46:10;;;;;;;4.95;3.90;;;;;;;6.50;87.90;97467.25;5075178;28;20049;-62
2022/12/03 07:48:37;;;;;;;4.18;3.78;;;;;;;6.53;86.88;97472.41;5075300;28;20114;-61
2022/12/03 07:51:05;;;;;;;2.90;2.65;;;;;;;6.51;86.48;97466.38;5075194;28;20051;-61
2022/12/03 07:53:34;;;;;;;2.38;1.90;;;;;;;6.55;86.20;97459.41;5074969;28;20053;-61
2022/12/03 07:56:05;;;;;;;2.38;2.10;;;;;;;6.61;86.41;97469.78;5075201;28;20123;-61
2022/12/03 07:58:35;;;;;;;1.98;1.88;;;;;;;6.65;85.24;97463.66;5075143;28;20052;-61
2022/12/03 08:01:03;;;;;;;2.33;2.13;;;;;;;6.68;86.82;97466.25;5074971;28;20044;-61
2022/12/03 08:03:32;;;;;;;2.40;1.90;;;;;;;6.73;84.82;97466.22;5074829;28;20048;-61
2022/12/03 08:05:59;;;;;;;4.35;1.70;;;;;;;6.80;83.49;97464.41;5074797;28;20052;-61
2022/12/03 08:08:27;;;;;;;1.83;1.73;;;;;;;6.91;84.30;97469.53;5074797;28;20401;-61
2022/12/03 08:10:55;;;;;;;2.10;1.90;;;;;;;6.92;83.75;97466.94;5074756;28;20052;-61
2022/12/03 08:13:24;;;;;;;7.13;2.38;;;;;;;6.97;84.22;97464.28;5074573;28;20405;-61
2022/12/03 08:15:52;;;;;;;1.90;1.80;;;;;;;7.03;83.59;97466.84;5074624;28;20557;-61
2022/12/03 08:18:22;;;;;;;1.90;1.80;;;;;;;7.16;82.71;97469.31;5074552;28;20072;-61
2022/12/03 08:20:51;;;;;;;2.42;2.00;;;;;;;7.24;83.00;97464.91;5074444;28;20056;-62
2022/12/03 08:23:21;;;;;;;7.57;6.68;;;;;;;7.27;85.97;97462.28;5074472;28;20453;-61
2022/12/03 08:25:49;;;;;;;4.68;4.15;;;;;;;7.28;85.72;97466.59;5074427;28;20533;-62
2022/12/03 08:28:19;;;;;;;3.63;2.72;;;;;;;7.30;84.32;97464.84;5074314;28;20075;-62
2022/12/03 08:31:00;;;;;;;5.15;4.65;;;;;;;7.34;85.86;97463.06;5074313;28;20041;-61
2022/12/03 08:33:32;;;;;;;9.20;8.13;;;;;;;7.40;86.26;97464.75;5074096;28;20048;-62
2022/12/03 08:36:02;;;;;;;13.77;12.18;;;;;;;7.46;86.58;97468.16;5074082;28;20045;-62
2022/12/03 08:38:30;;;;;;;18.83;12.98;;;;;;;7.45;86.18;97466.44;5074155;28;20049;-61
2022/12/03 08:40:58;;;;;;;17.30;12.52;;;;;;;7.46;86.18;97462.06;5110525;28;20050;-62
2022/12/03 08:43:27;;;;;;;20.55;13.07;;;;;;;7.51;86.34;97459.44;5114782;28;20435;-62
2022/12/03 08:45:57;;;;;;;16.58;12.82;;;;;;;7.50;86.64;97462.91;5114702;28;20073;-62
2022/12/03 08:48:32;;;;;;;16.02;12.23;;;;;;;7.46;86.24;97467.28;5114571;28;20051;-62
2022/12/03 08:51:04;;;;;;;17.15;12.25;;;;;;;7.39;86.16;97463.03;5114592;28;20051;-61
2022/12/03 08:53:33;;;;;;;17.98;13.18;;;;;;;7.30;86.48;97463.97;5114455;28;20051;-62
2022/12/03 08:56:05;;;;;;;20.33;14.73;;;;;;;7.25;86.80;97464.03;5114406;28;20134;-62
2022/12/03 08:58:38;;;;;;;27.08;15.48;;;;;;;7.15;87.51;97473.69;5114337;28;20051;-61
2022/12/03 09:01:28;;;;;;;23.42;15.68;;;;;;;7.11;88.55;97465.91;5114450;28;20051;-62
2022/12/03 09:03:59;;;;;;;16.75;11.15;;;;;;;7.07;88.59;97465.06;5114331;28;20071;-62
2022/12/03 09:06:26;;;;;;;30.23;20.33;;;;;;;7.09;88.98;97465.91;5114352;28;20052;-62
2022/12/03 09:08:55;;;;;;;29.30;15.90;;;;;;;7.08;88.99;97469.41;5114175;28;20040;-62
2022/12/03 09:11:23;;;;;;;30.83;15.50;;;;;;;7.03;89.12;97461.63;5114044;28;20051;-62
2022/12/03 09:13:50;;;;;;;39.83;15.80;;;;;;;7.03;89.28;97461.63;5114033;28;20432;-62
2022/12/03 09:16:19;;;;;;;23.52;15.27;;;;;;;7.05;89.38;97459.03;5113963;28;20131;-61
2022/12/03 09:18:47;;;;;;;30.13;16.30;;;;;;;7.03;89.42;97468.56;5113952;28;20078;-61
2022/12/03 09:21:14;;;;;;;32.03;13.75;;;;;;;6.89;89.54;97458.31;5113929;28;20054;-61
2022/12/03 09:23:41;;;;;;;12.43;8.23;;;;;;;6.78;88.22;97463.59;5113935;28;20082;-61
2022/12/03 09:26:08;;;;;;;14.35;8.88;;;;;;;6.68;88.35;97468.84;5113868;28;20043;-62
2022/12/03 09:28:36;;;;;;;9.60;7.50;;;;;;;6.67;88.05;97467.13;5113824;28;20050;-61
2022/12/03 09:31:05;;;;;;;12.23;7.78;;;;;;;6.57;88.28;97471.53;5113939;28;20127;-62
2022/12/03 09:33:34;;;;;;;19.13;7.78;;;;;;;6.46;88.72;97468.13;5113809;28;20058;-61
2022/12/03 09:36:01;;;;;;;22.05;8.40;;;;;;;6.36;89.50;97472.53;5113884;28;20101;-62
2022/12/03 09:38:30;;;;;;;14.52;7.47;;;;;;;6.25;89.51;97467.41;5113651;28;20048;-62
2022/12/03 09:40:57;;;;;;;10.68;7.00;;;;;;;6.23;89.06;97456.16;5113454;28;20039;-62
2022/12/03 09:43:25;;;;;;;9.95;7.03;;;;;;;6.23;89.93;97466.53;5113696;28;20055;-61
2022/12/03 09:45:53;;;;;;;12.70;7.53;;;;;;;6.22;90.35;97445.75;5113599;28;20043;-62
2022/12/03 09:48:22;;;;;;;13.95;8.93;;;;;;;6.31;91.40;97461.31;5113170;28;20040;-62
2022/12/03 09:50:52;;;;;;;15.67;11.20;;;;;;;6.44;92.08;97459.47;5113594;28;20412;-61
2022/12/03 09:53:24;;;;;;;18.90;12.50;;;;;;;6.54;92.03;97455.09;5113491;28;20092;-61
2022/12/03 09:55:52;;;;;;;19.48;11.68;;;;;;;6.53;91.63;97459.41;5113580;28;20050;-61
2022/12/03 09:58:21;;;;;;;17.10;10.57;;;;;;;6.50;91.87;97446.44;5113538;28;20043;-61
2022/12/03 10:00:52;;;;;;;12.70;9.43;;;;;;;6.50;91.33;97446.44;5113473;28;20051;-61
2022/12/03 10:03:23;;;;;;;9.90;6.90;;;;;;;6.61;89.50;97440.28;5113551;28;20047;-61
2022/12/03 10:05:54;;;;;;;10.25;6.72;;;;;;;6.60;88.74;97433.38;5113226;28;20425;-62
2022/12/03 10:08:23;;;;;;;9.43;6.35;;;;;;;6.53;88.33;97436.03;5113388;28;20070;-61
2022/12/03 10:10:55;;;;;;;7.72;5.25;;;;;;;6.50;87.88;97432.59;5113502;28;20073;-61
2022/12/03 10:13:25;;;;;;;7.30;5.63;;;;;;;6.56;88.32;97429.94;5113175;28;20043;-62
2022/12/03 10:15:55;;;;;;;6.30;5.18;;;;;;;6.62;88.33;97434.25;5113411;28;20416;-61
2022/12/03 10:18:25;;;;;;;7.57;5.90;;;;;;;6.66;88.20;97425.53;5113231;28;20051;-61
2022/12/03 10:20:54;;;;;;;7.63;5.25;;;;;;;6.77;88.37;97428.06;5113311;28;20058;-62
2022/12/03 10:23:23;;;;;;;6.20;4.97;;;;;;;6.87;87.60;97426.22;5113203;28;20123;-61
2022/12/03 10:25:56;;;;;;;21.52;12.88;;;;;;;6.81;88.65;97421.94;5113360;28;20043;-62
2022/12/03 10:28:29;;;;;;;17.17;11.98;;;;;;;6.86;89.48;97424.50;5113315;28;20040;-62
2022/12/03 10:30:58;;;;;;;19.40;11.00;;;;;;;6.92;89.38;97419.22;5113269;28;20105;-62
2022/12/03 10:33:31;;;;;;;18.80;11.63;;;;;;;6.98;89.48;97420.94;5113388;28;20051;-62
2022/12/03 10:36:16;;;;;;;15.45;11.25;;;;;;;6.99;90.04;97420.06;5113098;28;20075;-62
2022/12/03 10:38:43;;;;;;;18.30;9.93;;;;;;;7.00;89.57;97421.75;5113072;28;20046;-62
2022/12/03 10:41:28;;;;;;;13.27;8.07;;;;;;;7.07;89.03;97423.44;5112951;28;20055;-63
2022/12/03 10:44:12;;;;;;;11.80;8.50;;;;;;;7.09;88.85;97416.47;5112981;28;20052;-62
2022/12/03 10:46:39;;;;;;;12.20;9.00;;;;;;;7.17;88.96;97416.41;5113379;28;20050;-62
2022/12/03 10:49:15;;;;;;;14.05;9.52;;;;;;;7.28;88.59;97416.28;5113117;28;20090;-62
2022/12/03 10:51:46;;;;;;;14.27;9.23;;;;;;;7.31;88.08;97417.13;5113119;28;20048;-62
2022/12/03 10:54:20;;;;;;;13.65;8.63;;;;;;;7.38;87.73;97409.25;5112839;28;20135;-62
2022/12/03 10:56:49;;;;;;;13.57;7.90;;;;;;;7.41;87.73;97414.41;5113247;28;20043;-62
2022/12/03 10:59:19;;;;;;;5.07;4.57;;;;;;;7.36;86.55;97413.59;5112816;28;20055;-62
2022/12/03 11:01:50;;;;;;;;;;;;;;;7.28;83.36;97409.34;5117008;28;20047;-62
2022/12/03 11:04:22;;;;;;;5.38;4.15;;;;;;;7.03;83.41;97414.81;5116602;28;19927;-61
2022/12/03 11:06:52;;;;;;;5.38;4.30;;;;;;;6.85;83.92;97407.16;5116509;28;20085;-61
2022/12/03 11:09:24;;;;;;;5.63;4.03;;;;;;;6.80;84.27;97418.47;5116521;28;20044;-62
2022/12/03 11:11:52;;;;;;;5.28;4.50;;;;;;;6.77;85.01;97412.47;5116353;28;20445;-62
2022/12/03 11:15:03;;;;;;;5.47;4.47;;;;;;;6.75;84.97;97406.38;5116482;28;20077;-61
2022/12/03 11:17:50;;;;;;;4.60;3.70;;;;;;;6.74;85.13;97404.69;5116307;28;20451;-62
2022/12/03 11:21:09;;;;;;;5.57;4.20;;;;;;;6.66;85.72;97404.72;5116174;28;20044;-62
2022/12/03 11:24:27;;;;;;;5.30;4.05;;;;;;;6.66;85.60;97410.81;5116286;28;20048;-61
2022/12/03 11:27:22;;;;;;;4.65;3.83;;;;;;;6.63;85.84;97412.56;5033519;28;20565;-62
2022/12/03 11:30:09;;;;;;;6.07;5.05;;;;;;;6.65;85.49;97411.66;5033502;28;20049;-62
2022/12/03 11:33:22;;;;;;;4.78;4.20;;;;;;;6.72;85.62;97411.63;5106559;28;20040;-61
2022/12/03 11:36:12;;;;;;;5.22;4.35;;;;;;;6.75;85.78;97415.06;5115949;28;20520;-61
2022/12/03 11:39:05;;;;;;;6.43;4.40;;;;;;;6.77;85.91;97410.69;5115948;28;20055;-61
2022/12/03 11:41:39;;;;;;;7.53;4.28;;;;;;;6.84;86.39;97411.53;5075103;28;20052;-61
2022/12/03 11:44:38;;;;;;;5.85;4.45;;;;;;;6.83;84.68;97405.44;5075289;28;20432;-61
2022/12/03 11:47:25;;;;;;;4.90;4.40;;;;;;;6.85;85.51;97404.56;5075028;28;20087;-62
2022/12/03 11:49:53;;;;;;;9.85;4.50;;;;;;;6.92;85.82;97401.91;5075101;28;20041;-61
2022/12/03 11:52:29;;;;;;;4.95;4.28;;;;;;;6.99;85.40;97394.91;5075108;28;20044;-62
2022/12/03 11:55:14;;;;;;;5.05;4.32;;;;;;;7.11;84.42;97403.44;5075126;28;20091;-61
2022/12/03 11:57:42;;;;;;;4.57;3.67;;;;;;;7.17;83.45;97403.41;5074992;28;20082;-61
2022/12/03 12:00:20;;;;;;;5.95;4.35;;;;;;;7.22;82.89;97408.56;5074985;28;20079;-61
2022/12/03 12:02:56;;;;;;;4.93;4.43;;;;;;;7.25;82.34;97405.94;5074912;28;20044;-62
2022/12/03 12:05:29;;;;;;;4.32;3.60;;;;;;;7.28;82.34;97408.47;5074723;28;20478;-62